Time;durP1;ratioP1;P1;durP2;ratioP2;P2;SDS_P1;SDS_P2;PMS_P1;PMS_P2;Temp;Humidity;BMP_temperature;BMP_pressure;BME280_temperature;BME280_humidity;BME280_pressure;Samples;Min_cycle;Max_cycle;Signal;HPM_P1;HPM_P2
2023/10/14 00:00:46;;;;;;;11.30;4.97;;;;;;;22.77;49.49;151731.78;4934848;28;20705;-57
2023/10/14 00:03:27;;;;;;;11.47;5.10;;;;;;;22.71;50.26;151716.72;4938833;28;20322;-57
2023/10/14 00:05:54;;;;;;;10.50;5.07;;;;;;;22.61;51.01;151692.91;4932452;28;20247;-57
2023/10/14 00:08:22;;;;;;;6.70;4.70;;;;;;;22.53;51.54;151674.06;4938327;28;20239;-56
2023/10/14 00:10:48;;;;;;;17.37;5.37;;;;;;;22.58;51.69;151684.09;4939129;28;20257;-56
2023/10/14 00:13:16;;;;;;;13.60;5.17;;;;;;;22.59;51.81;151686.59;4939559;28;20237;-57
2023/10/14 00:15:45;;;;;;;10.13;5.20;;;;;;;22.62;51.78;151694.13;4941472;28;20254;-56
2023/10/14 00:18:12;;;;;;;9.53;5.53;;;;;;;22.61;51.79;151692.91;4943623;28;20240;-55
2023/10/14 00:20:41;;;;;;;15.63;5.73;;;;;;;22.50;52.50;151665.28;4939520;28;20263;-56
2023/10/14 00:23:07;;;;;;;12.30;5.00;;;;;;;22.54;51.98;151675.34;4940643;28;20240;-58
2023/10/14 00:25:34;;;;;;;11.40;5.73;;;;;;;22.56;51.75;151680.34;4944247;28;20252;-57
2023/10/14 00:28:12;;;;;;;10.93;5.00;;;;;;;22.45;52.59;151653.97;4942248;28;20303;-57
2023/10/14 00:30:40;;;;;;;9.10;5.70;;;;;;;22.39;52.69;151638.88;4938767;28;20246;-54
2023/10/14 00:33:07;;;;;;;11.30;5.43;;;;;;;22.41;52.85;151643.91;4947867;28;20237;-56
2023/10/14 00:35:39;;;;;;;16.33;5.33;;;;;;;22.36;53.44;151631.34;4941453;28;20239;-57
2023/10/14 00:38:12;;;;;;;9.67;5.57;;;;;;;22.35;53.63;151628.84;4940004;28;20237;-54
2023/10/14 00:40:39;;;;;;;8.63;6.20;;;;;;;22.19;54.46;151590.00;4953163;28;20774;-56
2023/10/14 00:43:07;;;;;;;14.43;5.67;;;;;;;22.12;54.51;151574.94;4942736;28;20325;-54
2023/10/14 00:45:42;;;;;;;10.17;5.77;;;;;;;22.09;55.03;151567.41;4946866;28;20763;-57
2023/10/14 00:48:12;;;;;;;8.63;5.63;;;;;;;22.06;54.72;151558.66;4938363;28;20557;-53
2023/10/14 00:50:41;;;;;;;9.87;6.03;;;;;;;22.08;55.02;151563.69;4937268;28;20675;-56
2023/10/14 00:53:10;;;;;;;11.20;6.20;;;;;;;22.03;55.24;151551.13;4947316;28;20256;-54
2023/10/14 00:55:46;;;;;;;11.07;6.17;;;;;;;22.05;54.93;151556.16;4939791;28;20241;-56
2023/10/14 00:58:20;;;;;;;10.50;5.73;;;;;;;21.99;55.71;151541.09;4939637;28;20333;-57
2023/10/14 01:00:56;;;;;;;10.53;6.17;;;;;;;21.93;56.27;151527.28;4943331;28;20332;-56
2023/10/14 01:03:24;;;;;;;12.33;5.77;;;;;;;21.89;56.43;151518.53;4939992;28;20618;-56
2023/10/14 01:05:50;;;;;;;22.67;6.10;;;;;;;21.84;57.09;151506.00;4943998;28;20227;-56
2023/10/14 01:08:22;;;;;;;8.83;6.07;;;;;;;21.87;57.20;151513.50;4941929;28;20227;-57
2023/10/14 01:10:50;;;;;;;11.10;6.47;;;;;;;21.84;57.68;151506.00;4953259;28;20326;-56
2023/10/14 01:13:22;;;;;;;12.63;5.87;;;;;;;21.83;58.16;151503.47;4943306;28;20252;-57
2023/10/14 01:15:57;;;;;;;11.57;6.23;;;;;;;21.79;58.30;151493.44;4942975;28;20235;-56
2023/10/14 01:18:25;;;;;;;14.90;6.30;;;;;;;21.78;58.48;151490.94;4946905;28;20251;-53
2023/10/14 01:20:51;;;;;;;11.43;6.10;;;;;;;21.74;59.07;151482.13;4939540;28;20613;-56
2023/10/14 01:23:20;;;;;;;13.43;6.50;;;;;;;21.78;58.81;151490.94;4938082;28;20239;-56
2023/10/14 01:25:52;;;;;;;12.73;6.07;;;;;;;21.77;58.70;151489.66;4943306;28;21073;-55
2023/10/14 01:28:21;;;;;;;17.53;6.00;;;;;;;21.75;59.40;151483.41;4957605;28;20595;-56
2023/10/14 01:31:11;;;;;;;10.67;6.20;;;;;;;21.77;59.32;151489.66;4943128;28;20229;-56
2023/10/14 01:33:37;;;;;;;10.33;5.73;;;;;;;21.76;59.70;151485.91;4946097;28;20312;-57
2023/10/14 01:36:05;;;;;;;11.30;6.10;;;;;;;21.78;59.93;151490.94;4940127;28;20248;-55
2023/10/14 01:38:34;;;;;;;15.13;6.73;;;;;;;21.77;60.08;151489.66;4944163;28;20340;-56
2023/10/14 01:41:04;;;;;;;11.77;6.53;;;;;;;21.73;60.87;151479.63;4937861;28;20234;-57
2023/10/14 01:43:32;;;;;;;13.63;6.63;;;;;;;21.66;61.59;151463.34;4945188;28;20315;-56
2023/10/14 01:46:08;;;;;;;11.27;6.00;;;;;;;21.67;61.40;151464.63;4955822;28;20244;-54
2023/10/14 01:48:38;;;;;;;13.70;6.37;;;;;;;21.61;62.08;151450.75;4953362;28;20259;-56
2023/10/14 01:51:06;;;;;;;15.87;7.27;;;;;;;21.62;62.05;151453.31;4936630;28;20227;-53
2023/10/14 01:53:35;;;;;;;14.97;6.37;;;;;;;21.61;62.07;151450.75;4940335;28;20227;-56
2023/10/14 01:56:03;;;;;;;11.63;6.80;;;;;;;21.58;62.19;151442.00;4933322;28;20598;-54
2023/10/14 01:58:32;;;;;;;12.53;6.57;;;;;;;21.56;62.28;151437.00;4945685;28;20232;-56
2023/10/14 02:01:04;;;;;;;15.27;6.23;;;;;;;21.59;61.98;151444.53;4941441;28;20702;-56
2023/10/14 02:03:35;;;;;;;12.57;7.30;;;;;;;21.57;61.88;151439.50;4944941;28;20253;-55
2023/10/14 02:06:10;;;;;;;13.67;6.60;;;;;;;21.53;61.99;151431.97;4936509;28;20643;-55
2023/10/14 02:08:38;;;;;;;11.63;6.50;;;;;;;21.51;62.18;151426.97;4946139;28;20228;-53
2023/10/14 02:11:05;;;;;;;15.47;7.10;;;;;;;21.46;62.13;151414.44;4940043;28;20711;-55
2023/10/14 02:13:36;;;;;;;14.83;6.10;;;;;;;21.42;62.43;151404.41;4937541;28;20237;-57
2023/10/14 02:16:07;;;;;;;16.87;6.70;;;;;;;21.44;62.45;151408.13;4949913;28;20732;-56
2023/10/14 02:18:36;;;;;;;12.17;6.80;;;;;;;21.48;62.17;151418.16;4940193;29;20233;-55
2023/10/14 02:21:11;;;;;;;12.80;7.03;;;;;;;21.44;62.58;151408.13;4938792;28;20238;-56
2023/10/14 02:23:47;;;;;;;16.67;7.13;;;;;;;21.41;62.99;151400.63;4940760;28;20238;-56
2023/10/14 02:26:22;;;;;;;11.90;6.53;;;;;;;21.41;62.94;151400.63;4939298;28;20812;-56
2023/10/14 02:28:51;;;;;;;12.27;6.63;;;;;;;21.35;63.20;151388.06;4940760;28;20220;-56
2023/10/14 02:31:29;;;;;;;12.37;6.27;;;;;;;21.33;63.42;151381.84;4944236;28;20272;-57
2023/10/14 02:33:56;;;;;;;12.60;6.37;;;;;;;21.34;63.15;151384.34;4942695;28;21246;-54
2023/10/14 02:36:28;;;;;;;14.70;6.37;;;;;;;21.30;63.52;151374.31;4940956;28;20324;-56
2023/10/14 02:38:57;;;;;;;19.37;6.90;;;;;;;21.29;63.11;151373.03;4935611;28;20447;-53
2023/10/14 02:41:29;;;;;;;11.50;6.20;;;;;;;21.24;63.06;151360.50;4939752;28;20666;-53
2023/10/14 02:44:18;;;;;;;12.27;5.97;;;;;;;21.26;62.54;151365.50;4941796;28;20328;-56
2023/10/14 02:46:46;;;;;;;16.03;6.93;;;;;;;21.26;62.22;151365.50;4936118;28;20375;-57
2023/10/14 02:49:14;;;;;;;12.07;6.47;;;;;;;21.24;62.63;151360.50;4943044;28;20266;-54
2023/10/14 02:51:43;;;;;;;17.90;6.37;;;;;;;21.30;61.99;151375.53;4935943;28;20326;-57
2023/10/14 02:54:26;;;;;;;15.10;6.47;;;;;;;21.34;61.24;151384.34;4944977;28;20255;-55
2023/10/14 02:56:57;;;;;;;13.80;6.30;;;;;;;21.34;61.86;151384.34;4936835;28;20592;-56
2023/10/14 02:59:36;;;;;;;18.53;6.97;;;;;;;21.27;61.86;151368.00;4944585;28;20243;-55
2023/10/14 03:02:17;;;;;;;16.40;6.20;;;;;;;21.29;61.95;151373.03;4937240;28;20237;-56
2023/10/14 03:04:55;;;;;;;19.17;7.10;;;;;;;21.27;62.18;151366.78;4936509;28;20835;-56
2023/10/14 03:07:23;;;;;;;13.43;6.13;;;;;;;21.24;62.18;151361.78;4940200;28;20598;-53
2023/10/14 03:09:52;;;;;;;12.60;6.97;;;;;;;21.22;62.94;151356.75;4935417;28;20244;-55
2023/10/14 03:12:22;;;;;;;17.73;6.13;;;;;;;21.20;63.16;151351.75;4951587;28;20243;-54
2023/10/14 03:14:49;;;;;;;13.30;6.63;;;;;;;21.20;63.60;151350.50;4949046;28;20228;-55
2023/10/14 03:17:25;;;;;;;25.30;8.00;;;;;;;21.15;63.94;151339.22;4943894;28;20235;-56
2023/10/14 03:19:54;;;;;;;13.33;6.60;;;;;;;21.10;64.37;151326.69;4951465;28;20227;-57
2023/10/14 03:22:26;;;;;;;12.50;6.23;;;;;;;21.07;64.51;151319.16;4935618;28;20714;-56
2023/10/14 03:25:07;;;;;;;13.50;6.70;;;;;;;21.03;64.73;151309.13;4937456;28;20231;-55
2023/10/14 03:27:34;;;;;;;9.43;6.57;;;;;;;21.04;64.81;151311.63;4944771;28;20232;-56
2023/10/14 03:30:02;;;;;;;12.50;6.53;;;;;;;21.04;64.86;151311.63;4932735;28;20329;-56
2023/10/14 03:32:54;;;;;;;14.27;6.57;;;;;;;20.97;68.78;151295.38;5011303;23;20596;-54
2023/10/14 03:35:23;;;;;;;8.67;4.93;;;;;;;20.32;75.16;151137.41;4938141;28;20232;-55
2023/10/14 03:37:54;;;;;;;12.90;4.13;;;;;;;19.40;81.22;150914.44;4934041;28;20584;-54
2023/10/14 03:40:51;;;;;;;11.03;4.37;;;;;;;18.82;88.99;150774.19;4940038;28;20247;-56
2023/10/14 03:43:19;;;;;;;22.87;5.50;;;;;;;18.44;95.87;150682.84;4917297;29;20343;-56
2023/10/14 03:45:48;;;;;;;13.53;4.70;;;;;;;18.19;99.77;150622.78;4917191;29;20260;-56
2023/10/14 03:48:15;;;;;;;13.40;5.50;;;;;;;17.90;100.00;150551.41;4919151;29;20822;-53
2023/10/14 03:50:41;;;;;;;12.73;5.27;;;;;;;17.83;100.00;150536.41;4917391;29;20707;-57
2023/10/14 03:53:08;;;;;;;14.70;6.23;;;;;;;17.81;100.00;150530.13;4918817;29;20230;-57
2023/10/14 03:55:38;;;;;;;15.03;6.00;;;;;;;17.73;100.00;150511.38;4920804;29;20220;-56
2023/10/14 03:58:04;;;;;;;11.33;5.37;;;;;;;17.65;100.00;150491.38;4917590;29;20253;-56
2023/10/14 04:00:37;;;;;;;14.50;6.07;;;;;;;17.60;100.00;150480.09;4920748;29;20715;-57
2023/10/14 04:03:11;;;;;;;18.10;6.27;;;;;;;17.53;100.00;150462.56;4917299;29;20232;-54
2023/10/14 04:05:41;;;;;;;17.10;7.20;;;;;;;17.55;100.00;150467.56;4918725;29;20233;-57
2023/10/14 04:08:09;;;;;;;12.70;6.70;;;;;;;17.58;100.00;150475.06;4920304;29;20232;-54
2023/10/14 04:10:44;;;;;;;14.83;7.70;;;;;;;17.58;100.00;150475.06;4920420;29;20283;-57
2023/10/14 04:13:14;;;;;;;12.80;7.47;;;;;;;17.59;100.00;150476.34;4916655;29;20812;-56
2023/10/14 04:15:49;;;;;;;15.03;6.43;;;;;;;17.66;100.00;150493.88;4915383;29;20317;-56
2023/10/14 04:18:24;;;;;;;17.67;6.93;;;;;;;17.68;100.00;150500.09;4919750;29;20234;-57
2023/10/14 04:21:02;;;;;;;12.13;6.50;;;;;;;17.64;100.00;150490.09;4917508;29;20255;-57
2023/10/14 04:23:29;;;;;;;16.70;6.20;;;;;;;17.73;100.00;150510.09;4921377;29;20888;-55
2023/10/14 04:26:03;;;;;;;14.17;6.23;;;;;;;17.76;100.00;150517.63;4915962;29;20227;-54
2023/10/14 04:28:39;;;;;;;18.20;7.20;;;;;;;17.61;100.00;150482.59;4917788;29;20246;-56
2023/10/14 04:31:08;;;;;;;12.23;6.43;;;;;;;17.71;100.00;150506.38;4917685;29;21028;-57
2023/10/14 04:33:44;;;;;;;13.03;6.27;;;;;;;17.71;100.00;150507.59;4920137;29;20862;-53
2023/10/14 04:39:07;;;;;;;16.03;6.10;;;;;;;17.81;97.30;150530.13;4916083;29;20231;-56
2023/10/14 04:41:36;;;;;;;15.43;6.67;;;;;;;17.91;94.66;150553.91;4920472;29;20295;-55
2023/10/14 04:44:11;;;;;;;12.83;5.70;;;;;;;17.87;96.64;150545.13;4916864;29;20234;-55
2023/10/14 04:46:51;;;;;;;9.87;5.60;;;;;;;17.97;94.66;150570.16;4914936;29;20233;-56
2023/10/14 04:49:29;;;;;;;10.13;5.07;;;;;;;17.97;91.03;150568.94;4915301;29;20731;-56
2023/10/14 04:51:58;;;;;;;14.00;4.83;;;;;;;17.92;91.31;150557.66;4908144;29;20241;-54
2023/10/14 04:54:27;;;;;;;8.53;5.00;;;;;;;18.07;87.59;150593.97;4920844;29;20238;-53
2023/10/14 04:56:57;;;;;;;18.00;4.53;;;;;;;18.05;88.29;150587.72;4919055;29;20242;-54
2023/10/14 04:59:25;;;;;;;13.27;5.10;;;;;;;18.08;87.54;150595.25;4922816;29;20238;-56
2023/10/14 05:01:52;;;;;;;12.80;4.60;;;;;;;18.08;87.36;150596.47;4919715;29;20341;-54
2023/10/14 05:04:20;;;;;;;10.40;4.33;;;;;;;18.08;86.49;150595.25;4922183;29;20226;-56
2023/10/14 05:06:48;;;;;;;11.40;4.00;;;;;;;18.09;84.70;150597.75;4921418;29;20707;-53
2023/10/14 05:09:27;;;;;;;10.63;4.40;;;;;;;18.13;84.42;150607.75;4921522;29;20715;-56
2023/10/14 05:11:55;;;;;;;7.80;3.27;;;;;;;18.08;84.84;150596.47;4920598;29;20230;-56
2023/10/14 05:14:33;;;;;;;7.60;2.97;;;;;;;18.17;83.00;150616.50;4928929;29;20244;-55
2023/10/14 05:17:13;;;;;;;9.30;2.50;;;;;;;18.23;81.69;150631.50;4919626;29;20228;-56
2023/10/14 05:19:42;;;;;;;5.10;2.50;;;;;;;18.22;80.48;150630.28;4919219;29;20316;-53
2023/10/14 05:22:13;;;;;;;12.37;2.47;;;;;;;18.19;81.39;150622.78;4924185;29;20246;-56
2023/10/14 05:24:45;;;;;;;7.83;1.90;;;;;;;18.24;81.06;150635.28;4921061;29;20228;-54
2023/10/14 05:27:13;;;;;;;9.60;2.17;;;;;;;18.22;81.70;150630.28;4919472;29;20243;-55
2023/10/14 05:29:39;;;;;;;8.50;2.00;;;;;;;18.22;80.10;150630.28;4917292;29;20258;-55
2023/10/14 05:32:10;;;;;;;10.70;2.47;;;;;;;18.25;80.82;150637.78;4922124;29;20238;-55
2023/10/14 05:34:39;;;;;;;6.40;1.90;;;;;;;18.27;79.90;150641.50;4920516;29;20557;-55
2023/10/14 05:37:11;;;;;;;7.40;1.93;;;;;;;18.28;79.90;150645.28;4921290;29;20246;-54
2023/10/14 05:39:38;;;;;;;5.50;1.80;;;;;;;18.24;80.04;150635.28;4922003;29;20238;-53
2023/10/14 05:42:13;;;;;;;4.47;1.80;;;;;;;18.30;79.16;150649.03;4920721;29;20238;-55
2023/10/14 05:44:46;;;;;;;3.87;1.63;;;;;;;18.25;80.64;150636.50;4915663;29;20239;-54
2023/10/14 05:47:13;;;;;;;3.50;1.50;;;;;;;18.27;78.61;150642.78;4926651;29;20239;-53
2023/10/14 05:49:40;;;;;;;6.40;1.50;;;;;;;18.34;78.82;150659.03;4917969;29;20821;-54
2023/10/14 05:52:08;;;;;;;7.23;1.57;;;;;;;18.39;77.42;150671.56;4924136;29;20230;-56
2023/10/14 05:54:36;;;;;;;4.83;1.70;;;;;;;18.37;78.28;150666.56;4920136;29;20224;-56
2023/10/14 05:57:03;;;;;;;5.77;2.43;;;;;;;18.37;77.80;150666.56;4918290;29;20246;-53
2023/10/14 05:59:32;;;;;;;7.23;1.70;;;;;;;18.39;78.95;150670.31;4922089;29;20231;-54
2023/10/14 06:01:59;;;;;;;4.00;1.50;;;;;;;18.28;79.08;150644.03;4918314;29;20419;-54
2023/10/14 06:04:26;;;;;;;2.53;1.53;;;;;;;18.35;77.76;150660.31;4921309;29;20228;-54
2023/10/14 06:06:53;;;;;;;7.83;1.80;;;;;;;18.37;77.92;150665.31;4918990;29;20239;-57
2023/10/14 06:09:21;;;;;;;5.10;2.37;;;;;;;18.39;78.16;150671.56;4923848;29;20227;-57
2023/10/14 06:11:47;;;;;;;8.10;1.60;;;;;;;18.49;75.09;150694.09;4917121;29;20336;-57
2023/10/14 06:14:14;;;;;;;5.40;2.20;;;;;;;18.51;75.00;150699.09;4919670;29;20309;-57
2023/10/14 06:16:41;;;;;;;5.80;2.00;;;;;;;18.59;73.79;150719.13;4917061;29;20643;-56
2023/10/14 06:19:12;;;;;;;6.83;1.40;;;;;;;18.64;74.10;150731.63;4921253;29;20239;-57
2023/10/14 06:21:39;;;;;;;5.20;1.30;;;;;;;18.68;73.84;150740.38;4916839;29;20228;-57
2023/10/14 06:24:10;;;;;;;6.23;1.70;;;;;;;18.62;75.01;150725.34;4920376;29;20234;-57
2023/10/14 06:26:37;;;;;;;6.80;1.60;;;;;;;18.62;74.39;150725.34;4921394;29;20231;-56
2023/10/14 06:29:05;;;;;;;7.63;1.90;;;;;;;18.60;74.08;150721.63;4917268;29;20247;-57
2023/10/14 06:31:31;;;;;;;7.23;1.60;;;;;;;18.64;74.99;150731.63;4920920;29;20339;-53
2023/10/14 06:33:58;;;;;;;8.87;1.87;;;;;;;18.68;74.30;150740.38;4918618;29;22164;-56
2023/10/14 06:36:26;;;;;;;6.07;1.67;;;;;;;18.69;74.08;150744.16;4920623;29;20253;-55
2023/10/14 06:38:59;;;;;;;5.53;1.43;;;;;;;18.73;73.69;150752.91;4919155;29;20233;-53
2023/10/14 06:41:27;;;;;;;5.93;1.97;;;;;;;18.71;74.07;150747.88;4920651;29;20631;-56
2023/10/14 06:43:56;;;;;;;7.80;1.83;;;;;;;18.81;73.46;150771.69;4916558;29;20579;-56
2023/10/14 06:46:25;;;;;;;7.20;2.03;;;;;;;18.71;74.12;150749.16;4920265;29;20231;-56
2023/10/14 06:48:55;;;;;;;4.63;1.90;;;;;;;18.76;74.35;150760.41;4918361;29;20220;-57
2023/10/14 06:51:22;;;;;;;11.23;2.43;;;;;;;18.90;72.76;150794.22;4917860;29;20743;-56
2023/10/14 06:53:51;;;;;;;8.03;2.30;;;;;;;18.92;72.44;150799.25;4917917;29;20243;-55
2023/10/14 06:56:20;;;;;;;8.00;2.30;;;;;;;18.88;72.97;150789.22;4919685;29;20244;-57
2023/10/14 06:58:48;;;;;;;6.47;2.27;;;;;;;18.89;73.29;150791.72;4918111;29;20240;-53
2023/10/14 07:01:16;;;;;;;9.87;2.63;;;;;;;18.82;73.82;150775.44;4920191;29;20228;-57
2023/10/14 07:03:42;;;;;;;6.90;2.43;;;;;;;18.82;74.27;150774.19;4917409;29;20321;-56
2023/10/14 07:06:09;;;;;;;5.93;2.17;;;;;;;18.77;75.58;150761.69;4919270;29;20292;-57
2023/10/14 07:08:36;;;;;;;7.30;2.37;;;;;;;18.79;76.10;150767.91;4918157;29;20236;-56
2023/10/14 07:11:06;;;;;;;8.00;2.10;;;;;;;18.73;76.49;150752.91;4922230;29;20241;-54
2023/10/14 07:13:32;;;;;;;5.50;1.77;;;;;;;18.74;76.19;150755.41;4918592;29;20237;-55
2023/10/14 07:16:05;;;;;;;9.83;2.07;;;;;;;18.77;76.24;150761.69;4919508;29;21020;-56
2023/10/14 07:18:36;;;;;;;5.53;1.83;;;;;;;18.83;76.35;150777.94;4920286;29;20602;-54
2023/10/14 07:21:03;;;;;;;5.40;1.90;;;;;;;18.83;76.29;150776.72;4918849;29;20238;-54
2023/10/14 07:23:33;;;;;;;4.77;1.70;;;;;;;18.67;77.21;150739.16;4921636;29;20291;-56
2023/10/14 07:26:09;;;;;;;6.00;1.83;;;;;;;18.65;77.51;150732.88;4919174;29;20231;-57
2023/10/14 07:28:36;;;;;;;4.50;2.10;;;;;;;18.69;77.31;150744.16;4922093;29;20237;-55
2023/10/14 07:31:03;;;;;;;6.40;1.87;;;;;;;18.67;78.11;150739.16;4916585;29;20265;-55
2023/10/14 07:33:30;;;;;;;6.67;2.20;;;;;;;18.65;78.29;150734.13;4918709;29;20237;-56
2023/10/14 07:35:59;;;;;;;6.60;1.70;;;;;;;18.69;78.79;150744.16;4915371;29;20237;-54
2023/10/14 07:38:25;;;;;;;4.10;1.50;;;;;;;18.59;79.75;150719.13;4919950;29;20687;-54
2023/10/14 07:40:53;;;;;;;4.80;1.70;;;;;;;18.68;78.47;150740.38;4918280;29;20230;-57
2023/10/14 07:43:21;;;;;;;4.87;1.53;;;;;;;18.64;79.25;150730.38;4919907;29;20235;-56
2023/10/14 07:45:52;;;;;;;4.63;2.00;;;;;;;18.51;79.52;150699.09;4918775;29;20690;-56
2023/10/14 07:48:20;;;;;;;5.83;1.70;;;;;;;18.53;79.28;150704.09;4921409;29;20227;-56
2023/10/14 07:50:48;;;;;;;4.63;1.40;;;;;;;18.49;79.75;150695.38;4919169;29;20226;-54
2023/10/14 07:53:17;;;;;;;6.73;1.70;;;;;;;18.61;79.46;150724.13;4920244;29;20231;-54
2023/10/14 07:55:47;;;;;;;4.07;1.60;;;;;;;18.57;78.82;150715.34;4917671;29;20369;-55
2023/10/14 07:58:14;;;;;;;4.80;1.70;;;;;;;18.72;78.66;150751.66;4919073;29;20247;-57
2023/10/14 08:00:49;;;;;;;6.40;2.00;;;;;;;18.76;78.13;150760.41;4916090;29;20246;-55
2023/10/14 08:03:16;;;;;;;5.00;2.03;;;;;;;18.82;78.31;150774.19;4920924;29;20287;-56
2023/10/14 08:05:45;;;;;;;7.73;1.87;;;;;;;18.85;77.88;150782.94;4917698;29;20272;-56
2023/10/14 08:08:13;;;;;;;5.10;2.10;;;;;;;18.81;78.12;150771.69;4919145;29;20316;-56
2023/10/14 08:10:42;;;;;;;4.67;1.90;;;;;;;18.82;80.09;150774.19;4916145;29;20225;-56
2023/10/14 08:13:08;;;;;;;6.90;2.80;;;;;;;18.76;79.62;150759.19;4917797;29;20305;-54
2023/10/14 08:15:36;;;;;;;5.90;2.47;;;;;;;18.86;79.54;150784.22;4921649;29;20235;-54
2023/10/14 08:18:05;;;;;;;1.87;0.50;;;;;;;17.19;91.56;150380.06;4918224;29;20704;-57
2023/10/14 08:20:35;;;;;;;1.50;0.70;;;;;;;16.35;100.00;150177.50;4920127;29;20649;-55
2023/10/14 08:23:09;;;;;;;2.10;0.23;;;;;;;16.09;100.00;150116.22;4913592;29;20245;-56
2023/10/14 08:25:36;;;;;;;2.83;0.30;;;;;;;15.92;100.00;150075.00;4919956;29;20237;-55
2023/10/14 08:28:04;;;;;;;1.73;0.60;;;;;;;15.76;100.00;150034.97;4915764;29;20228;-53
2023/10/14 08:30:32;;;;;;;2.73;0.40;;;;;;;15.56;100.00;149986.25;4916804;29;20241;-54
2023/10/14 08:33:01;;;;;;;2.17;0.20;;;;;;;15.40;100.00;149947.50;4919302;29;20253;-54
2023/10/14 08:35:29;;;;;;;0.83;0.13;;;;;;;15.50;100.00;149972.47;4924281;29;20246;-55
2023/10/14 08:37:57;;;;;;;1.10;0.30;;;;;;;15.42;100.00;149952.50;4920171;29;20232;-53
2023/10/14 08:40:26;;;;;;;0.50;0.20;;;;;;;15.48;100.00;149967.47;4921913;29;20238;-53
2023/10/14 08:42:56;;;;;;;2.43;0.50;;;;;;;15.54;100.00;149981.25;4920372;29;20246;-54
2023/10/14 08:45:25;;;;;;;0.37;0.20;;;;;;;15.55;100.00;149984.97;4921483;29;20576;-56
2023/10/14 08:47:54;;;;;;;1.43;0.20;;;;;;;15.47;100.00;149964.97;4918148;29;20229;-57
2023/10/14 08:50:23;;;;;;;0.53;0.20;;;;;;;15.48;100.00;149968.75;4921646;29;20224;-56
2023/10/14 08:52:53;;;;;;;0.97;0.30;;;;;;;15.47;100.00;149964.97;4919280;29;20717;-53
2023/10/14 08:55:21;;;;;;;1.40;0.20;;;;;;;15.44;100.00;149958.75;4922095;29;20283;-54
2023/10/14 08:57:48;;;;;;;0.27;0.20;;;;;;;15.19;100.00;149898.78;4918432;29;20240;-53
2023/10/14 09:00:20;;;;;;;1.50;0.23;;;;;;;15.31;100.00;149927.53;4921567;29;20245;-55
2023/10/14 09:02:51;;;;;;;0.73;0.30;;;;;;;15.46;100.00;149962.47;4918865;29;21021;-57
2023/10/14 09:05:18;;;;;;;0.20;0.20;;;;;;;15.42;100.00;149953.75;4920953;29;20237;-55
2023/10/14 09:07:46;;;;;;;0.40;0.20;;;;;;;15.48;100.00;149967.47;4921032;29;20573;-54
2023/10/14 09:10:18;;;;;;;0.50;0.30;;;;;;;15.59;100.00;149993.75;4922476;29;20273;-54
2023/10/14 09:12:58;;;;;;;2.63;0.40;;;;;;;15.56;100.00;149986.25;4920979;29;20768;-56
2023/10/14 09:15:30;;;;;;;0.83;0.27;;;;;;;15.62;100.00;150001.25;4921369;29;20252;-54
2023/10/14 09:17:57;;;;;;;0.57;0.20;;;;;;;15.62;100.00;150002.47;4921720;29;20239;-53
2023/10/14 09:20:32;;;;;;;2.53;0.20;;;;;;;15.74;100.00;150029.97;4924088;29;20324;-55
2023/10/14 09:23:14;;;;;;;1.30;0.20;;;;;;;15.69;100.00;150018.75;4916196;29;20258;-53
2023/10/14 09:25:44;;;;;;;2.13;0.20;;;;;;;15.42;100.00;149953.75;4918793;29;20324;-55
2023/10/14 09:28:11;;;;;;;0.73;0.20;;;;;;;15.30;100.00;149925.03;4923541;29;20222;-54
2023/10/14 09:30:44;;;;;;;2.20;0.40;;;;;;;15.57;100.00;149989.97;4921946;29;20597;-53
2023/10/14 09:33:15;;;;;;;4.17;0.80;;;;;;;15.54;100.00;149982.47;4919891;29;20266;-57
2023/10/14 09:35:45;;;;;;;1.30;0.20;;;;;;;15.54;100.00;149982.47;4921007;29;20326;-54
2023/10/14 09:38:14;;;;;;;1.07;0.20;;;;;;;15.84;100.00;150054.94;4918923;29;20247;-55
2023/10/14 09:40:43;;;;;;;1.43;0.30;;;;;;;15.70;100.00;150021.22;4918906;29;20232;-56
2023/10/14 09:43:12;;;;;;;1.73;0.30;;;;;;;15.74;100.00;150029.97;4917736;29;20605;-56
2023/10/14 09:45:44;;;;;;;1.53;0.50;;;;;;;15.67;100.00;150013.72;4917366;29;20258;-55
2023/10/14 09:48:14;;;;;;;3.37;0.43;;;;;;;15.54;100.00;149981.25;4921445;29;20893;-56
2023/10/14 09:50:42;;;;;;;0.30;0.27;;;;;;;15.46;100.00;149963.75;4918565;29;20334;-56
2023/10/14 09:53:13;;;;;;;2.50;0.40;;;;;;;15.41;100.00;149951.25;4917303;29;20235;-57
2023/10/14 09:55:42;;;;;;;1.27;0.40;;;;;;;15.59;100.00;149993.75;4916592;29;20226;-56
2023/10/14 09:58:12;;;;;;;0.50;0.30;;;;;;;15.60;100.00;149996.25;4920400;29;20239;-55
2023/10/14 10:00:40;;;;;;;0.30;0.30;;;;;;;15.46;100.00;149963.75;4918288;29;20955;-54
2023/10/14 10:03:09;;;;;;;3.53;0.40;;;;;;;15.36;100.00;149938.78;4918926;29;20233;-56
2023/10/14 10:05:40;;;;;;;2.57;0.90;;;;;;;15.14;100.00;149885.06;4923814;29;20238;-55
2023/10/14 10:08:28;;;;;;;6.73;0.50;;;;;;;15.11;100.00;149878.81;4919166;29;20561;-56
2023/10/14 10:10:55;;;;;;;1.53;0.40;;;;;;;15.12;100.00;149881.31;4919966;29;20247;-54
2023/10/14 10:13:28;;;;;;;0.20;0.20;;;;;;;15.10;100.00;149876.31;4921469;29;20252;-55
2023/10/14 10:15:54;;;;;;;1.73;0.30;;;;;;;14.95;100.00;149840.09;4916387;29;20589;-56
2023/10/14 10:18:22;;;;;;;1.53;0.40;;;;;;;15.17;100.00;149892.56;4920190;29;20584;-53
2023/10/14 10:20:55;;;;;;;0.73;0.30;;;;;;;15.28;100.00;149920.06;4919575;29;20242;-56
2023/10/14 10:23:23;;;;;;;2.07;0.40;;;;;;;15.08;100.00;149870.09;4923259;29;20603;-56
2023/10/14 10:25:51;;;;;;;1.60;0.60;;;;;;;15.11;100.00;149878.81;4918227;29;20249;-56
2023/10/14 10:28:39;;;;;;;2.80;0.57;;;;;;;14.98;100.00;149846.31;4922166;29;20712;-55
2023/10/14 10:31:09;;;;;;;1.20;0.50;;;;;;;14.89;100.00;149826.34;4916940;29;20233;-54
2023/10/14 10:34:01;;;;;;;1.50;0.60;;;;;;;14.86;100.00;149818.84;4917251;29;20236;-56
2023/10/14 10:36:29;;;;;;;3.67;0.60;;;;;;;14.94;100.00;149837.59;4905538;29;20238;-56
2023/10/14 10:39:05;;;;;;;1.40;0.60;;;;;;;14.89;100.00;149826.34;4917450;29;20224;-55
2023/10/14 10:41:37;;;;;;;1.10;0.60;;;;;;;14.97;100.00;149843.81;4919662;29;20272;-54
2023/10/14 10:44:08;;;;;;;1.90;0.60;;;;;;;14.92;100.00;149832.63;4917675;29;20758;-56
2023/10/14 10:46:39;;;;;;;0.40;0.30;;;;;;;14.46;100.00;149721.44;4920653;29;20251;-53
2023/10/14 10:49:10;;;;;;;1.03;0.33;;;;;;;14.65;100.00;149766.41;4917937;29;20240;-56
2023/10/14 10:51:36;;;;;;;0.30;0.23;;;;;;;14.61;100.00;149757.63;4922934;29;20269;-55
2023/10/14 10:54:04;;;;;;;2.27;0.70;;;;;;;14.70;100.00;149778.94;4933233;28;20239;-53
2023/10/14 10:56:33;;;;;;;1.10;0.40;;;;;;;14.78;100.00;149797.63;4921339;29;20257;-56
2023/10/14 10:59:01;;;;;;;2.87;0.50;;;;;;;14.57;100.00;149747.63;4918165;29;20338;-55
2023/10/14 11:01:32;;;;;;;1.10;0.60;;;;;;;14.71;100.00;149781.44;4923720;29;20265;-56
2023/10/14 11:04:00;;;;;;;1.43;0.40;;;;;;;14.68;100.00;149775.13;4917805;29;20299;-56
2023/10/14 11:06:29;;;;;;;2.63;0.50;;;;;;;14.51;100.00;149732.66;4920915;29;20251;-56
2023/10/14 11:08:58;;;;;;;2.23;0.40;;;;;;;14.56;100.00;149746.41;4913048;29;20232;-56
2023/10/14 11:11:29;;;;;;;0.87;0.40;;;;;;;14.52;100.00;149735.16;4921667;29;20718;-55
2023/10/14 11:13:57;;;;;;;0.87;0.40;;;;;;;14.58;100.00;149751.41;4917412;29;20243;-54
2023/10/14 11:16:27;;;;;;;0.57;0.30;;;;;;;14.42;100.00;149711.44;4920607;29;20329;-54
2023/10/14 11:18:55;;;;;;;0.83;0.50;;;;;;;14.15;100.00;149647.81;4918304;29;20246;-55
2023/10/14 11:21:26;;;;;;;0.70;0.40;;;;;;;14.01;100.00;149612.84;4918070;29;20676;-55
2023/10/14 11:23:54;;;;;;;2.37;0.40;;;;;;;13.74;100.00;149547.94;4916259;29;20321;-54
2023/10/14 11:26:23;;;;;;;1.40;0.40;;;;;;;13.89;100.00;149584.09;4922797;29;20712;-55
2023/10/14 11:28:50;;;;;;;3.00;0.43;;;;;;;13.98;100.00;149605.34;4916825;29;20255;-56
2023/10/14 11:31:20;;;;;;;0.87;0.40;;;;;;;13.97;100.00;149602.84;4918974;29;20334;-54
2023/10/14 11:33:49;;;;;;;2.83;0.60;;;;;;;13.96;100.00;149600.38;4914554;29;20236;-56
2023/10/14 11:36:18;;;;;;;1.33;0.40;;;;;;;14.00;100.00;149610.34;4919464;29;20227;-56